首页
METAR-TAF:

METAR-TAF

机场 :

努美阿, 新喀里多尼亚

纬度: 22-15-30S, 经度: 166-28-22E, 海拔: 3米

METAR: 丢失

时间: 08:29 (21:29 UTC)

预报

该预报发布于4小时和29分钟前的17:00 UTC
预报有效从22日的 18点(UTC)到 23日的 18点(UTC)
风速5节,风向东转东北
能见度10公里或以上
少量云层高于2500英尺
多云层高于6500英尺
成为
从 22日的 22点(UTC)到 22日的 24点(UTC)
风速18节,风向东南
几率 30% :
短暂存在
从 23日的 00点(UTC)到 23日的 06点(UTC)
多云层高于1400英尺
阵雨
成为
从 23日的 10点(UTC)到 23日的 12点(UTC)
风速5节,风向东转东北

TAF: NWWM 221700Z 2218/2318 06005KT 9999 FEW025 BKN065 BECMG 2222/2224 13018KT PROB30 TEMPO 2300/2306 SHRA BKN014 BECMG 2310/2312 07005KT

超过4000个机场的气象观测和天气预报(METAR&TAF报告)。

可查询的气象台以黄色和红色小点在地图上表示。

将鼠标移到小点上方,可查看气象台名称。

然后点击查看天气观测和预报。

如需切换地图:点击带黑十字的绿色按钮放大地图;点击带横线的绿色按钮缩小地图;或者点击绿色箭头查看邻近地区的地图。


METAR-TAF: